createdAt,value
2023-03-07T00:02:13.444Z,98530.78
2023-03-07T00:04:46.046Z,98450.03
2023-03-07T00:07:14.186Z,98578.66
2023-03-07T00:09:42.345Z,98571.66
2023-03-07T00:12:11.328Z,98570.03
2023-03-07T00:14:39.390Z,98568.31
2023-03-07T00:17:07.416Z,98559.78
2023-03-07T00:19:35.256Z,98420.53
2023-03-07T00:22:05.286Z,98554.50
2023-03-07T00:24:33.268Z,98542.00
2023-03-07T00:27:01.100Z,98538.31
2023-03-07T00:29:29.461Z,98540.47
2023-03-07T00:31:57.279Z,98536.78
2023-03-07T00:34:25.104Z,98536.91
2023-03-07T00:36:54.066Z,98526.41
2023-03-07T00:39:23.680Z,98516.03
2023-03-07T00:41:51.519Z,98528.09
2023-03-07T00:44:19.324Z,98527.97
2023-03-07T00:46:47.156Z,98514.91
2023-03-07T00:49:15.087Z,98523.78
2023-03-07T00:51:43.439Z,98510.47
2023-03-07T00:54:11.342Z,98498.47
2023-03-07T00:56:40.546Z,98480.50
2023-03-07T00:59:08.525Z,98497.88
2023-03-07T01:01:36.981Z,98493.41
2023-03-07T01:04:05.376Z,98457.59
2023-03-07T01:06:34.525Z,98487.75
2023-03-07T01:09:05.362Z,98487.16
2023-03-07T01:11:35.182Z,98458.91
2023-03-07T01:14:06.816Z,98472.28
2023-03-07T01:16:38.865Z,98473.88
2023-03-07T01:19:07.940Z,98474.56
2023-03-07T01:21:37.700Z,98464.09
2023-03-07T01:24:05.854Z,98459.56
2023-03-07T01:26:35.443Z,98449.41
2023-03-07T01:29:07.068Z,98409.50
2023-03-07T01:31:37.198Z,98455.25
2023-03-07T01:34:06.594Z,98445.34
2023-03-07T01:36:38.421Z,98447.47
2023-03-07T01:39:10.402Z,98393.47
2023-03-07T01:41:41.633Z,98435.50
2023-03-07T01:44:17.281Z,98435.81
2023-03-07T01:46:48.744Z,98398.22
2023-03-07T01:49:25.377Z,98432.81
2023-03-07T01:52:04.184Z,98430.34
2023-03-07T01:54:35.827Z,98383.53
2023-03-07T01:57:04.622Z,98431.03
2023-03-07T01:59:37.755Z,98420.47
2023-03-07T02:02:11.931Z,98413.50
2023-03-07T02:04:45.338Z,98416.13
2023-03-07T02:07:14.851Z,98304.41
2023-03-07T02:09:47.424Z,98362.03
2023-03-07T02:12:16.523Z,98359.47
2023-03-07T02:14:48.397Z,98399.00
2023-03-07T02:17:16.580Z,98404.16
2023-03-07T02:19:54.604Z,98393.66
2023-03-07T02:22:22.535Z,98282.50
2023-03-07T02:24:54.396Z,98401.41
2023-03-07T02:27:25.415Z,98339.69
2023-03-07T02:29:53.727Z,98394.63
2023-03-07T02:32:22.361Z,98392.69
2023-03-07T02:34:50.266Z,98401.22
2023-03-07T02:37:26.096Z,98400.50
2023-03-07T02:39:55.948Z,98397.50
2023-03-07T02:42:29.647Z,98390.72
2023-03-07T02:45:10.046Z,98392.44
2023-03-07T02:47:39.474Z,98390.88
2023-03-07T02:50:08.470Z,98361.28
2023-03-07T02:52:39.596Z,98386.47
2023-03-07T02:55:09.161Z,98347.44
2023-03-07T02:57:41.991Z,98377.50
2023-03-07T03:00:12.379Z,98383.91
2023-03-07T03:02:40.217Z,98370.13
2023-03-07T03:05:09.040Z,98361.38
2023-03-07T03:07:36.903Z,98367.91
2023-03-07T03:10:05.459Z,98357.81
2023-03-07T03:12:34.268Z,98355.28
2023-03-07T03:15:04.385Z,98352.69
2023-03-07T03:17:34.072Z,98355.34
2023-03-07T03:20:01.854Z,98360.78
2023-03-07T03:22:30.966Z,98347.69
2023-03-07T03:24:58.953Z,98354.69
2023-03-07T03:27:26.840Z,98337.50
2023-03-07T03:29:55.348Z,98089.06
2023-03-07T03:32:25.239Z,98350.88
2023-03-07T03:34:53.200Z,98316.31
2023-03-07T03:37:21.232Z,98322.50
2023-03-07T03:39:49.343Z,98312.03
2023-03-07T03:42:17.175Z,98341.03
2023-03-07T03:44:45.352Z,98330.50
2023-03-07T03:47:13.320Z,98321.03
2023-03-07T03:49:42.685Z,98294.56
2023-03-07T03:52:11.120Z,98329.19
2023-03-07T03:54:38.880Z,98328.53
2023-03-07T03:57:07.742Z,98321.63
2023-03-07T03:59:35.570Z,98319.91
2023-03-07T04:02:03.690Z,98326.69
2023-03-07T04:04:31.571Z,98163.19
2023-03-07T04:07:01.130Z,98324.75
2023-03-07T04:09:29.308Z,98277.34
2023-03-07T04:11:57.133Z,98321.53
2023-03-07T04:14:25.436Z,98294.94
2023-03-07T04:16:53.509Z,98319.59
2023-03-07T04:19:22.130Z,98309.19
2023-03-07T04:21:50.364Z,98259.19
2023-03-07T04:24:19.866Z,98283.34
2023-03-07T04:26:48.167Z,98294.34
2023-03-07T04:29:16.612Z,98291.25
2023-03-07T04:31:51.712Z,98296.78
2023-03-07T04:34:19.722Z,98296.59
2023-03-07T04:36:47.570Z,98289.00
2023-03-07T04:39:15.638Z,98286.47
2023-03-07T04:41:45.326Z,98285.16
2023-03-07T04:44:18.256Z,98286.22
2023-03-07T04:46:46.125Z,98273.38
2023-03-07T04:49:14.176Z,98273.47
2023-03-07T04:51:44.118Z,98253.47
2023-03-07T04:54:13.637Z,98276.69
2023-03-07T04:56:42.412Z,98279.06
2023-03-07T04:59:13.635Z,98280.84
2023-03-07T05:01:42.392Z,98269.56
2023-03-07T05:04:10.340Z,98267.44
2023-03-07T05:06:39.717Z,98283.19
2023-03-07T05:09:08.691Z,98277.94
2023-03-07T05:11:36.762Z,98262.13
2023-03-07T05:14:05.246Z,98247.63
2023-03-07T05:16:35.423Z,98259.63
2023-03-07T05:19:05.981Z,98251.75
2023-03-07T05:21:34.209Z,98236.19
2023-03-07T05:24:02.532Z,98256.69
2023-03-07T05:26:31.926Z,98247.84
2023-03-07T05:29:00.061Z,98231.28
2023-03-07T05:31:28.186Z,98257.09
2023-03-07T05:33:57.574Z,98246.56
2023-03-07T05:36:25.564Z,98238.63
2023-03-07T05:38:56.279Z,98209.97
2023-03-07T05:41:24.832Z,98228.16
2023-03-07T05:43:52.616Z,98106.00
2023-03-07T05:46:20.817Z,98263.00
2023-03-07T05:48:48.738Z,98253.25
2023-03-07T05:51:18.056Z,98264.66
2023-03-07T05:53:46.489Z,98270.88
2023-03-07T05:56:15.016Z,98272.72
2023-03-07T05:58:43.537Z,98282.41
2023-03-07T06:01:12.324Z,98284.19
2023-03-07T06:03:40.921Z,98270.69
2023-03-07T06:06:09.290Z,98295.00
2023-03-07T06:08:38.512Z,98307.78
2023-03-07T06:11:07.057Z,98194.44
2023-03-07T06:13:38.293Z,98263.72
2023-03-07T06:16:07.199Z,98298.97
2023-03-07T06:18:35.860Z,98298.31
2023-03-07T06:21:05.844Z,98307.84
2023-03-07T06:23:40.027Z,98293.59
2023-03-07T06:26:13.073Z,98298.25
2023-03-07T06:28:43.033Z,98291.84
2023-03-07T06:31:15.118Z,98292.34
2023-03-07T06:33:43.628Z,98296.47
2023-03-07T06:36:15.662Z,98290.13
2023-03-07T06:38:48.079Z,98258.25
2023-03-07T06:41:15.925Z,98266.50
2023-03-07T06:43:44.066Z,98247.94
2023-03-07T06:46:12.490Z,98288.03
2023-03-07T06:48:43.895Z,98308.13
2023-03-07T06:51:16.243Z,98237.84
2023-03-07T06:53:47.285Z,98117.41
2023-03-07T06:56:15.338Z,98306.19
2023-03-07T06:58:44.258Z,98299.09
2023-03-07T07:01:18.142Z,98299.56
2023-03-07T07:03:48.404Z,98298.13
2023-03-07T07:06:16.943Z,98298.19
2023-03-07T07:08:44.863Z,98300.16
2023-03-07T07:11:14.240Z,98299.28
2023-03-07T07:13:43.451Z,98302.91
2023-03-07T07:16:12.953Z,98304.88
2023-03-07T07:18:41.006Z,98263.31
2023-03-07T07:21:09.950Z,98296.78
2023-03-07T07:23:38.121Z,98297.53
2023-03-07T07:26:06.995Z,98300.84
2023-03-07T07:28:38.917Z,98275.56
2023-03-07T07:31:09.006Z,98204.16
2023-03-07T07:33:38.301Z,98293.50
2023-03-07T07:36:08.934Z,98294.63
2023-03-07T07:38:37.626Z,98293.59
2023-03-07T07:41:05.843Z,98285.69
2023-03-07T07:43:34.582Z,98301.88
2023-03-07T07:46:13.790Z,98238.41
2023-03-07T07:48:42.623Z,98299.38
2023-03-07T07:51:11.867Z,98295.84
2023-03-07T07:53:39.909Z,98265.06
2023-03-07T07:56:08.623Z,98274.25
2023-03-07T07:58:36.531Z,98294.13
2023-03-07T08:01:15.696Z,98295.16
2023-03-07T08:03:43.755Z,98131.47
2023-03-07T08:06:11.996Z,98295.44
2023-03-07T08:08:40.414Z,98293.81
2023-03-07T08:11:08.445Z,98290.84
2023-03-07T08:13:36.272Z,98274.72
2023-03-07T08:16:10.268Z,98278.63
2023-03-07T08:18:39.543Z,98286.22
2023-03-07T08:21:08.777Z,98279.59
2023-03-07T08:23:37.051Z,98272.84
2023-03-07T08:26:06.380Z,98294.94
2023-03-07T08:28:34.398Z,98289.88
2023-03-07T08:31:07.729Z,98243.47
2023-03-07T08:33:35.833Z,98199.84
2023-03-07T08:36:06.190Z,98280.56
2023-03-07T08:38:34.424Z,98285.34
2023-03-07T08:41:03.893Z,98231.81
2023-03-07T08:43:33.985Z,98279.44
2023-03-07T08:46:02.178Z,98287.53
2023-03-07T08:48:30.340Z,98293.13
2023-03-07T08:50:58.517Z,98288.66
2023-03-07T08:53:27.684Z,98259.94
2023-03-07T08:55:55.458Z,98291.25
2023-03-07T08:58:23.264Z,98288.63
2023-03-07T09:00:51.210Z,98291.25
2023-03-07T09:03:19.038Z,98299.72
2023-03-07T09:05:46.893Z,98291.25
2023-03-07T09:08:14.654Z,98292.13
2023-03-07T09:10:43.910Z,98296.94
2023-03-07T09:13:12.136Z,98296.50
2023-03-07T09:15:40.313Z,98277.41
2023-03-07T09:18:08.349Z,98277.31
2023-03-07T09:20:36.694Z,98299.16
2023-03-07T09:23:04.520Z,98193.97
2023-03-07T09:25:32.307Z,98302.34
2023-03-07T09:28:01.611Z,98299.41
2023-03-07T09:30:29.572Z,98300.72
2023-03-07T09:32:57.364Z,98288.47
2023-03-07T09:35:26.051Z,98304.16
2023-03-07T09:37:54.032Z,98291.53
2023-03-07T09:40:25.200Z,98308.34
2023-03-07T09:43:02.272Z,98318.06
2023-03-07T09:45:48.223Z,98312.66
2023-03-07T09:49:04.131Z,98309.97
2023-03-07T09:51:38.400Z,98314.38
2023-03-07T09:54:11.726Z,98311.34
2023-03-07T09:56:44.274Z,98304.00
2023-03-07T09:59:23.728Z,98208.19
2023-03-07T10:01:59.800Z,98160.03
2023-03-07T10:04:34.030Z,98317.22
2023-03-07T10:07:05.189Z,98307.84
2023-03-07T10:09:33.395Z,98306.00
2023-03-07T10:12:27.472Z,98305.38
2023-03-07T10:15:10.240Z,98312.53
2023-03-07T10:17:57.682Z,98313.78
2023-03-07T10:20:36.479Z,98256.41
2023-03-07T10:23:25.449Z,98321.25
2023-03-07T10:25:57.222Z,98322.88
2023-03-07T10:28:29.178Z,98297.09
2023-03-07T10:31:00.839Z,98317.53
2023-03-07T10:33:31.845Z,98331.59
2023-03-07T10:36:07.640Z,98333.31
2023-03-07T10:38:41.243Z,98329.75
2023-03-07T10:41:14.930Z,98326.88
2023-03-07T10:43:44.643Z,98320.16
2023-03-07T10:46:24.719Z,98232.97
2023-03-07T10:49:03.149Z,98315.00
2023-03-07T10:51:47.396Z,98317.91
2023-03-07T10:54:20.064Z,98311.53
2023-03-07T10:57:09.157Z,98316.53
2023-03-07T10:59:38.922Z,98313.75
2023-03-07T11:02:29.994Z,98326.53
2023-03-07T11:04:59.940Z,98318.69
2023-03-07T11:07:30.166Z,98312.41
2023-03-07T11:10:00.110Z,98239.19
2023-03-07T11:12:31.917Z,98319.38
2023-03-07T11:15:11.767Z,98311.44
2023-03-07T11:17:43.470Z,98175.91
2023-03-07T11:20:24.034Z,98317.81
2023-03-07T11:23:08.594Z,98316.97
2023-03-07T11:25:37.483Z,98313.41
2023-03-07T11:28:05.916Z,98261.56
2023-03-07T11:30:43.436Z,98071.56
2023-03-07T11:33:18.347Z,98322.59
2023-03-07T11:36:05.569Z,98320.53
2023-03-07T11:38:42.331Z,98323.59
2023-03-07T11:41:14.989Z,98323.22
2023-03-07T11:43:52.926Z,98325.75
2023-03-07T11:46:33.200Z,98302.31
2023-03-07T11:49:09.686Z,98322.63
2023-03-07T11:51:49.762Z,98330.00
2023-03-07T11:54:27.697Z,98315.56
2023-03-07T11:57:00.430Z,98332.78
2023-03-07T12:00:00.531Z,98336.16
2023-03-07T12:02:48.897Z,98272.28
2023-03-07T12:05:27.169Z,98329.50
2023-03-07T12:08:17.851Z,98198.03
2023-03-07T12:10:57.013Z,98260.94
2023-03-07T12:13:37.944Z,98340.47
2023-03-07T12:16:19.737Z,98348.34
2023-03-07T12:19:12.373Z,98341.94
2023-03-07T12:22:07.149Z,98343.53
2023-03-07T12:24:40.948Z,98347.31
2023-03-07T12:27:16.266Z,98360.66
2023-03-07T12:29:50.863Z,98351.44
2023-03-07T12:32:24.480Z,98347.88
2023-03-07T12:34:56.917Z,98353.16
2023-03-07T12:37:29.916Z,98358.44
2023-03-07T12:40:04.298Z,98361.47
2023-03-07T12:42:38.293Z,98356.41
2023-03-07T12:45:12.322Z,98357.31
2023-03-07T12:47:56.854Z,98354.66
2023-03-07T12:50:30.130Z,98364.72
2023-03-07T12:53:04.993Z,98367.00
2023-03-07T12:55:39.375Z,98374.09
2023-03-07T12:58:13.183Z,98370.53
2023-03-07T13:00:46.352Z,98371.03
2023-03-07T13:03:22.578Z,98364.94
2023-03-07T13:05:51.390Z,98365.31
2023-03-07T13:08:24.528Z,98365.22
2023-03-07T13:10:54.493Z,98348.03
2023-03-07T13:13:55.382Z,98369.69
2023-03-07T13:16:38.624Z,98364.19
2023-03-07T13:19:44.415Z,98358.44
2023-03-07T13:22:49.622Z,98362.53
2023-03-07T13:26:00.436Z,98356.09
2023-03-07T13:28:44.471Z,98353.13
2023-03-07T13:31:40.343Z,98351.03
2023-03-07T13:34:52.863Z,98348.50
2023-03-07T13:37:57.799Z,98353.78
2023-03-07T13:40:48.780Z,98343.50
2023-03-07T13:44:06.398Z,98346.25
2023-03-07T13:46:58.859Z,98345.56
2023-03-07T13:49:46.493Z,98335.97
2023-03-07T13:52:45.185Z,98344.78
2023-03-07T13:55:24.017Z,98348.34
2023-03-07T13:57:52.277Z,98347.72
2023-03-07T14:00:28.173Z,98357.16
2023-03-07T14:02:57.434Z,98351.72
2023-03-07T14:05:25.845Z,98348.72
2023-03-07T14:07:54.706Z,98194.25
2023-03-07T14:10:28.231Z,98352.53
2023-03-07T14:13:14.840Z,98327.06
2023-03-07T14:15:53.681Z,98349.34
2023-03-07T14:18:36.104Z,98353.28
2023-03-07T14:21:12.766Z,98306.63
2023-03-07T14:24:05.620Z,98354.44
2023-03-07T14:26:36.891Z,98346.88
2023-03-07T14:29:15.944Z,98350.31
2023-03-07T14:31:46.059Z,98344.19
2023-03-07T14:34:18.993Z,98342.94
2023-03-07T14:36:50.450Z,98350.25
2023-03-07T14:39:19.067Z,98348.50
2023-03-07T14:41:56.787Z,98265.38
2023-03-07T14:44:42.894Z,98329.47
2023-03-07T14:47:29.198Z,98338.38
2023-03-07T14:50:06.055Z,98345.22
2023-03-07T14:52:34.647Z,98356.56
2023-03-07T14:55:05.064Z,98209.88
2023-03-07T14:57:35.353Z,98351.53
2023-03-07T15:00:06.442Z,98351.84
2023-03-07T15:02:35.798Z,98361.25
2023-03-07T15:05:04.655Z,98345.06
2023-03-07T15:07:37.060Z,98357.09
2023-03-07T15:10:05.431Z,98216.44
2023-03-07T15:12:33.318Z,98359.44
2023-03-07T15:15:04.549Z,98332.22
2023-03-07T15:17:43.609Z,98361.81
2023-03-07T15:20:20.717Z,98364.41
2023-03-07T15:22:48.716Z,98307.50
2023-03-07T15:25:22.664Z,98359.06
2023-03-07T15:27:59.784Z,98361.03
2023-03-07T15:30:30.796Z,98359.16
2023-03-07T15:33:16.655Z,98223.41
2023-03-07T15:35:44.989Z,98341.00
2023-03-07T15:38:18.970Z,98321.81
2023-03-07T15:40:47.198Z,98328.34
2023-03-07T15:43:25.560Z,98355.66
2023-03-07T15:46:04.345Z,98372.09
2023-03-07T15:48:48.440Z,98356.78
2023-03-07T15:51:18.138Z,98381.97
2023-03-07T15:53:54.621Z,98387.84
2023-03-07T15:56:25.702Z,98362.72
2023-03-07T15:58:56.230Z,98387.72
2023-03-07T16:01:26.082Z,98362.31
2023-03-07T16:03:57.134Z,98382.72
2023-03-07T16:06:33.262Z,98391.91
2023-03-07T16:09:02.238Z,98374.47
2023-03-07T16:11:30.054Z,98386.78
2023-03-07T16:13:58.576Z,98391.75
2023-03-07T16:16:29.614Z,98372.72
2023-03-07T16:18:59.193Z,98379.56
2023-03-07T16:21:27.312Z,98393.81
2023-03-07T16:23:55.167Z,98369.16
2023-03-07T16:26:25.223Z,98394.84
2023-03-07T16:28:54.346Z,98372.91
2023-03-07T16:31:22.666Z,98403.47
2023-03-07T16:33:50.602Z,98393.53
2023-03-07T16:36:19.989Z,98408.63
2023-03-07T16:38:48.102Z,98369.72
2023-03-07T16:41:18.366Z,98405.47
2023-03-07T16:43:47.913Z,98365.66
2023-03-07T16:46:18.144Z,98409.25
2023-03-07T16:48:46.730Z,98407.69
2023-03-07T16:51:17.871Z,98349.34
2023-03-07T16:53:47.852Z,98363.44
2023-03-07T16:56:23.665Z,98383.69
2023-03-07T16:58:52.206Z,98357.31
2023-03-07T17:01:20.107Z,98421.16
2023-03-07T17:03:48.089Z,98359.13
2023-03-07T17:06:17.736Z,98419.53
2023-03-07T17:08:47.545Z,98427.66
2023-03-07T17:11:20.049Z,98437.84
2023-03-07T17:13:49.117Z,98315.03
2023-03-07T17:16:18.130Z,98425.75
2023-03-07T17:18:46.448Z,98431.25
2023-03-07T17:21:15.391Z,98439.88
2023-03-07T17:23:44.988Z,98450.31
2023-03-07T17:26:19.276Z,98448.56
2023-03-07T17:28:47.621Z,98378.81
2023-03-07T17:31:15.408Z,98452.34
2023-03-07T17:33:43.739Z,98461.75
2023-03-07T17:36:12.430Z,98459.13
2023-03-07T17:38:40.289Z,98469.91
2023-03-07T17:41:08.072Z,98472.69
2023-03-07T17:43:37.333Z,98479.34
2023-03-07T17:46:09.133Z,98484.50
2023-03-07T17:48:37.340Z,98436.69
2023-03-07T17:51:09.101Z,98489.22
2023-03-07T17:53:37.120Z,98386.56
2023-03-07T17:56:09.368Z,98490.06
2023-03-07T17:58:38.650Z,98494.34
2023-03-07T18:01:08.423Z,98478.75
2023-03-07T18:03:36.748Z,98498.13
2023-03-07T18:06:04.692Z,98503.47
2023-03-07T18:08:32.790Z,98505.22
2023-03-07T18:11:04.117Z,98502.56
2023-03-07T18:13:31.942Z,98473.56
2023-03-07T18:16:01.628Z,98495.44
2023-03-07T18:18:32.921Z,98511.72
2023-03-07T18:21:02.580Z,98513.47
2023-03-07T18:23:30.585Z,98493.81
2023-03-07T18:25:59.065Z,98525.34
2023-03-07T18:28:27.446Z,98526.94
2023-03-07T18:30:59.957Z,98532.56
2023-03-07T18:33:29.430Z,98530.19
2023-03-07T18:35:57.712Z,98519.00
2023-03-07T18:38:26.221Z,98504.16
2023-03-07T18:41:04.621Z,98505.94
2023-03-07T18:43:32.808Z,98545.03
2023-03-07T18:46:00.770Z,98541.28
2023-03-07T18:48:29.928Z,98545.38
2023-03-07T18:50:59.005Z,98551.69
2023-03-07T18:53:27.275Z,98538.66
2023-03-07T18:55:55.391Z,98492.03
2023-03-07T18:58:23.688Z,98552.72
2023-03-07T19:00:51.588Z,98562.44
2023-03-07T19:03:19.479Z,98561.81
2023-03-07T19:05:50.362Z,98545.34
2023-03-07T19:08:18.421Z,98504.81
2023-03-07T19:10:46.288Z,98505.31
2023-03-07T19:13:14.161Z,98566.84
2023-03-07T19:15:43.139Z,98563.53
2023-03-07T19:18:12.425Z,98548.47
2023-03-07T19:20:40.917Z,98540.56
2023-03-07T19:23:10.172Z,98545.63
2023-03-07T19:25:37.955Z,98523.56
2023-03-07T19:28:05.782Z,98552.03
2023-03-07T19:30:35.551Z,98585.56
2023-03-07T19:33:03.406Z,98532.72
2023-03-07T19:35:31.520Z,98589.03
2023-03-07T19:37:59.722Z,98581.84
2023-03-07T19:40:29.695Z,98586.91
2023-03-07T19:42:57.828Z,98593.31
2023-03-07T19:45:26.958Z,98595.22
2023-03-07T19:47:54.772Z,98601.78
2023-03-07T19:50:22.663Z,98600.06
2023-03-07T19:52:50.471Z,98601.63
2023-03-07T19:55:18.328Z,98601.63
2023-03-07T19:57:47.874Z,98599.16
2023-03-07T20:00:16.672Z,98589.06
2023-03-07T20:02:44.693Z,98568.56
2023-03-07T20:05:12.674Z,98605.31
2023-03-07T20:07:40.993Z,98540.47
2023-03-07T20:10:09.949Z,98613.19
2023-03-07T20:12:37.785Z,98598.09
2023-03-07T20:15:08.419Z,98505.09
2023-03-07T20:17:36.643Z,98620.91
2023-03-07T20:20:07.944Z,98585.69
2023-03-07T20:22:35.862Z,98614.38
2023-03-07T20:25:03.745Z,98625.06
2023-03-07T20:27:31.664Z,98624.09
2023-03-07T20:29:59.573Z,98620.25
2023-03-07T20:32:28.929Z,98628.97
2023-03-07T20:35:03.338Z,98627.84
2023-03-07T20:37:32.962Z,98627.38
2023-03-07T20:40:02.147Z,98629.81
2023-03-07T20:42:30.701Z,98637.53
2023-03-07T20:44:58.635Z,98641.84
2023-03-07T20:47:28.524Z,98642.34
2023-03-07T20:49:56.576Z,98644.97
2023-03-07T20:52:25.909Z,98644.63
2023-03-07T20:54:53.873Z,98648.94
2023-03-07T20:57:21.710Z,98641.19
2023-03-07T20:59:50.005Z,98650.06
2023-03-07T21:02:17.991Z,98648.84
2023-03-07T21:04:49.690Z,98614.41
2023-03-07T21:07:17.938Z,98602.59
2023-03-07T21:09:50.756Z,98657.84
2023-03-07T21:12:18.856Z,98659.78
2023-03-07T21:14:46.870Z,98658.28
2023-03-07T21:17:14.645Z,98627.75
2023-03-07T21:19:42.546Z,98588.97
2023-03-07T21:22:11.828Z,98658.59
2023-03-07T21:24:40.000Z,98658.44
2023-03-07T21:27:07.766Z,98675.25
2023-03-07T21:29:35.661Z,98546.94
2023-03-07T21:32:03.781Z,98660.78
2023-03-07T21:34:31.682Z,98635.06
2023-03-07T21:36:59.573Z,98643.75
2023-03-07T21:39:28.942Z,98643.44
2023-03-07T21:41:56.942Z,98668.88
2023-03-07T21:44:25.068Z,98654.34
2023-03-07T21:46:52.912Z,98665.16
2023-03-07T21:49:21.066Z,98682.44
2023-03-07T21:51:48.937Z,98652.59
2023-03-07T21:54:16.908Z,98680.91
2023-03-07T21:56:46.250Z,98673.84
2023-03-07T21:59:14.421Z,98682.78
2023-03-07T22:01:42.273Z,98643.09
2023-03-07T22:04:10.155Z,98689.06
2023-03-07T22:06:38.125Z,98690.88
2023-03-07T22:09:06.209Z,98688.53
2023-03-07T22:11:34.202Z,98693.94
2023-03-07T22:14:03.874Z,98693.09
2023-03-07T22:16:31.894Z,98699.94
2023-03-07T22:18:59.815Z,98620.13
2023-03-07T22:21:28.038Z,98693.59
2023-03-07T22:23:58.026Z,98706.91
2023-03-07T22:26:26.757Z,98685.50
2023-03-07T22:28:55.000Z,98693.88
2023-03-07T22:31:25.460Z,98683.88
2023-03-07T22:33:53.553Z,98705.69
2023-03-07T22:36:22.304Z,98694.69
2023-03-07T22:38:55.116Z,98706.41
2023-03-07T22:41:24.361Z,98713.38
2023-03-07T22:43:53.097Z,98695.94
2023-03-07T22:46:21.532Z,98711.44
2023-03-07T22:48:54.255Z,98713.44
2023-03-07T22:51:22.240Z,98712.16
2023-03-07T22:53:50.128Z,98687.66
2023-03-07T22:56:20.201Z,98720.09
2023-03-07T22:58:48.657Z,98692.63
2023-03-07T23:01:20.172Z,98717.91
2023-03-07T23:03:49.725Z,98688.47
2023-03-07T23:06:19.807Z,98718.84
2023-03-07T23:08:49.534Z,98719.81
2023-03-07T23:11:19.383Z,98603.75
2023-03-07T23:13:47.780Z,98726.59
2023-03-07T23:16:17.587Z,98698.88
2023-03-07T23:18:46.772Z,98718.19
2023-03-07T23:21:16.564Z,98728.56
2023-03-07T23:23:46.243Z,98725.28
2023-03-07T23:26:18.554Z,98702.94
2023-03-07T23:28:46.674Z,98718.75
2023-03-07T23:31:18.768Z,98556.00
2023-03-07T23:33:46.675Z,98705.75
2023-03-07T23:36:14.475Z,98679.88
2023-03-07T23:38:42.576Z,98716.09
2023-03-07T23:41:11.916Z,98721.59
2023-03-07T23:43:40.230Z,98691.09
2023-03-07T23:46:08.231Z,98717.72
2023-03-07T23:48:36.132Z,98709.63
2023-03-07T23:51:03.963Z,98721.81
2023-03-07T23:53:31.845Z,98661.69
2023-03-07T23:55:59.745Z,98687.00
2023-03-07T23:58:28.977Z,98741.03
